createdAt,value
2019-06-07T00:02:20.290Z,87.40
2019-06-07T00:04:48.566Z,87.60
2019-06-07T00:07:17.877Z,87.70
2019-06-07T00:09:46.767Z,88.00
2019-06-07T00:12:17.571Z,87.80
2019-06-07T00:14:45.024Z,88.10
2019-06-07T00:17:15.356Z,88.30
2019-06-07T00:19:43.360Z,88.70
2019-06-07T00:22:18.383Z,88.60
2019-06-07T00:24:41.636Z,88.40
2019-06-07T00:27:11.234Z,88.40
2019-06-07T00:29:39.962Z,88.20
2019-06-07T00:32:09.281Z,88.10
2019-06-07T00:34:37.640Z,87.90
2019-06-07T00:37:07.072Z,87.80
2019-06-07T00:39:35.570Z,88.10
2019-06-07T00:42:03.864Z,87.80
2019-06-07T00:44:32.155Z,88.00
2019-06-07T00:47:00.403Z,88.10
2019-06-07T00:49:40.510Z,87.80
2019-06-07T00:51:58.701Z,88.20
2019-06-07T00:54:26.961Z,88.20
2019-06-07T00:57:16.728Z,87.60
2019-06-07T00:59:44.657Z,87.10
2019-06-07T01:02:14.638Z,87.10
2019-06-07T01:04:42.870Z,87.20
2019-06-07T01:07:11.141Z,87.10
2019-06-07T01:09:39.438Z,87.00
2019-06-07T01:12:07.699Z,87.70
2019-06-07T01:14:35.945Z,89.10
2019-06-07T01:17:27.572Z,88.40
2019-06-07T01:19:45.023Z,87.80
2019-06-07T01:22:15.970Z,88.10
2019-06-07T01:24:43.222Z,87.80
2019-06-07T01:27:11.561Z,88.50
2019-06-07T01:29:39.796Z,87.80
2019-06-07T01:32:08.063Z,88.30
2019-06-07T01:34:36.313Z,89.30
2019-06-07T01:37:04.579Z,89.30
2019-06-07T01:39:32.841Z,89.00
2019-06-07T01:42:01.102Z,88.80
2019-06-07T01:44:31.046Z,88.50
2019-06-07T01:46:59.296Z,88.00
2019-06-07T01:49:29.446Z,87.80
2019-06-07T01:51:57.565Z,87.60
2019-06-07T01:54:54.324Z,87.30
2019-06-07T01:56:55.852Z,87.40
2019-06-07T01:59:25.619Z,87.90
2019-06-07T02:01:54.061Z,88.60
2019-06-07T02:04:23.356Z,88.10
2019-06-07T02:06:52.298Z,88.00
2019-06-07T02:09:20.865Z,87.60
2019-06-07T02:11:49.292Z,87.60
2019-06-07T02:14:17.544Z,88.00
2019-06-07T02:16:45.921Z,88.70
2019-06-07T02:19:14.168Z,88.40
2019-06-07T02:21:42.403Z,88.30
2019-06-07T02:24:10.637Z,88.60
2019-06-07T02:26:38.868Z,88.70
2019-06-07T02:29:07.192Z,88.60
2019-06-07T02:31:39.386Z,88.70
2019-06-07T02:34:05.404Z,88.50
2019-06-07T02:36:41.036Z,88.30
2019-06-07T02:39:04.965Z,88.10
2019-06-07T02:41:39.371Z,88.40
2019-06-07T02:44:03.166Z,88.20
2019-06-07T02:46:40.041Z,88.40
2019-06-07T02:49:01.422Z,88.80
2019-06-07T02:51:40.028Z,89.10
2019-06-07T02:53:59.667Z,89.10
2019-06-07T02:56:42.165Z,89.20
2019-06-07T02:58:58.215Z,89.20
2019-06-07T03:01:28.581Z,89.10
2019-06-07T03:03:56.461Z,89.50
2019-06-07T03:06:27.051Z,89.70
2019-06-07T03:08:54.816Z,90.00
2019-06-07T03:11:23.057Z,90.10
2019-06-07T03:13:51.290Z,90.00
2019-06-07T03:16:21.189Z,90.10
2019-06-07T03:18:54.091Z,90.20
2019-06-07T03:21:28.193Z,90.20
2019-06-07T03:23:56.739Z,90.20
2019-06-07T03:26:27.617Z,90.20
2019-06-07T03:28:56.719Z,90.20
2019-06-07T03:31:31.801Z,90.30
2019-06-07T03:33:58.102Z,90.40
2019-06-07T03:36:27.508Z,90.40
2019-06-07T03:38:55.867Z,90.60
2019-06-07T03:41:24.111Z,90.80
2019-06-07T03:43:52.370Z,90.90
2019-06-07T03:46:20.664Z,91.00
2019-06-07T03:48:48.928Z,91.20
2019-06-07T03:51:26.904Z,91.20
2019-06-07T03:53:47.148Z,91.20
2019-06-07T03:56:15.888Z,91.10
2019-06-07T03:58:49.807Z,91.20
2019-06-07T04:01:14.410Z,91.30
2019-06-07T04:03:51.055Z,91.60
2019-06-07T04:06:12.644Z,91.30
2019-06-07T04:08:42.077Z,91.30
2019-06-07T04:11:10.697Z,91.50
2019-06-07T04:13:42.776Z,92.00
2019-06-07T04:16:08.988Z,92.00
2019-06-07T04:18:41.931Z,91.80
2019-06-07T04:21:07.265Z,91.60
2019-06-07T04:23:40.515Z,91.30
2019-06-07T04:26:05.540Z,91.30
2019-06-07T04:29:24.833Z,91.20
2019-06-07T04:31:03.837Z,91.00
2019-06-07T04:33:34.977Z,90.90
2019-06-07T04:36:02.137Z,91.00
2019-06-07T04:38:32.694Z,91.00
2019-06-07T04:41:00.389Z,91.10
2019-06-07T04:43:31.014Z,91.00
2019-06-07T04:45:58.609Z,91.20
2019-06-07T04:48:26.903Z,91.30
2019-06-07T04:50:55.185Z,91.30
2019-06-07T04:53:23.449Z,91.50
2019-06-07T04:55:51.681Z,91.20
2019-06-07T04:58:19.956Z,91.10
2019-06-07T05:00:54.008Z,91.10
2019-06-07T05:03:18.256Z,90.90
2019-06-07T05:05:46.507Z,90.50
2019-06-07T05:08:27.544Z,90.30
2019-06-07T05:10:44.734Z,90.20
2019-06-07T05:13:15.451Z,90.40
2019-06-07T05:15:43.702Z,90.30
2019-06-07T05:18:11.976Z,90.50
2019-06-07T05:20:41.521Z,90.50
2019-06-07T05:23:10.209Z,90.40
2019-06-07T05:25:42.242Z,90.10
2019-06-07T05:28:08.451Z,90.10
2019-06-07T05:33:10.496Z,90.20
2019-06-07T05:35:41.795Z,90.10
2019-06-07T05:38:08.701Z,90.00
2019-06-07T05:40:48.716Z,89.60
2019-06-07T05:43:27.652Z,88.70
2019-06-07T05:45:55.910Z,89.00
2019-06-07T05:48:24.236Z,88.10
2019-06-07T05:50:56.874Z,87.90
2019-06-07T05:53:22.462Z,88.30
2019-06-07T05:55:50.715Z,88.00
2019-06-07T05:58:19.210Z,88.20
2019-06-07T06:00:48.003Z,87.80
2019-06-07T06:03:16.414Z,87.60
2019-06-07T06:05:53.961Z,87.40
2019-06-07T06:08:14.728Z,88.20
2019-06-07T06:10:48.342Z,87.60
2019-06-07T06:13:12.991Z,87.10
2019-06-07T06:15:54.412Z,87.10
2019-06-07T06:18:11.969Z,86.50
2019-06-07T06:21:05.365Z,86.20
2019-06-07T06:23:10.203Z,85.30
2019-06-07T06:25:41.484Z,84.50
2019-06-07T06:28:12.264Z,83.50
2019-06-07T06:30:38.445Z,83.30
2019-06-07T06:33:06.806Z,85.10
2019-06-07T06:35:35.059Z,83.20
2019-06-07T06:38:03.325Z,83.70
2019-06-07T06:40:31.565Z,82.80
2019-06-07T06:43:00.618Z,84.10
2019-06-07T06:45:28.862Z,84.30
2019-06-07T06:47:57.093Z,82.30
2019-06-07T06:50:25.342Z,81.40
2019-06-07T06:52:54.659Z,79.40
2019-06-07T06:55:23.441Z,78.60
2019-06-07T06:57:52.999Z,78.50
2019-06-07T07:00:43.571Z,78.30
2019-06-07T07:03:47.427Z,77.60
2019-06-07T07:05:30.539Z,77.60
2019-06-07T07:07:58.829Z,77.10
2019-06-07T07:10:46.007Z,76.80
2019-06-07T07:13:15.009Z,76.20
2019-06-07T07:15:44.752Z,76.50
2019-06-07T07:18:13.224Z,77.70
2019-06-07T07:20:43.545Z,75.10
2019-06-07T07:23:11.506Z,75.70
2019-06-07T07:25:39.918Z,74.20
2019-06-07T07:28:08.565Z,75.20
2019-06-07T07:30:50.007Z,75.80
2019-06-07T07:33:18.187Z,75.70
2019-06-07T07:36:08.111Z,74.90
2019-06-07T07:38:16.421Z,73.70
2019-06-07T07:43:14.648Z,73.40
2019-06-07T07:45:45.907Z,73.10
2019-06-07T07:48:17.733Z,73.20
2019-06-07T07:50:45.134Z,72.30
2019-06-07T07:53:12.881Z,71.90
2019-06-07T07:55:41.150Z,72.20
2019-06-07T07:58:09.389Z,71.90
2019-06-07T08:01:08.986Z,70.60
2019-06-07T08:03:09.312Z,70.40
2019-06-07T08:05:43.051Z,70.70
2019-06-07T08:08:08.034Z,70.20
2019-06-07T08:10:36.435Z,71.80
2019-06-07T08:13:23.448Z,70.50
2019-06-07T08:15:34.717Z,69.90
2019-06-07T08:18:04.510Z,69.90
2019-06-07T08:20:32.947Z,69.60
2019-06-07T08:23:01.445Z,68.70
2019-06-07T08:25:29.727Z,68.60
2019-06-07T08:27:59.140Z,68.40
2019-06-07T08:33:20.197Z,68.50
2019-06-07T08:40:28.756Z,68.20
2019-06-07T08:43:13.084Z,67.20
2019-06-07T08:45:27.058Z,66.50
2019-06-07T08:47:57.998Z,66.30
2019-06-07T08:50:25.316Z,65.20
2019-06-07T08:53:00.003Z,65.60
2019-06-07T08:55:23.641Z,65.20
2019-06-07T08:57:54.518Z,65.30
2019-06-07T09:02:53.171Z,66.00
2019-06-07T09:05:21.889Z,64.70
2019-06-07T09:08:12.985Z,65.20
2019-06-07T09:10:21.277Z,64.50
2019-06-07T09:12:49.517Z,64.20
2019-06-07T09:15:23.297Z,63.10
2019-06-07T09:20:35.783Z,63.50
2019-06-07T09:22:50.437Z,63.60
2019-06-07T09:25:21.646Z,63.00
2019-06-07T09:27:49.124Z,63.10
2019-06-07T09:30:20.669Z,63.00
2019-06-07T09:32:48.907Z,62.40
2019-06-07T09:35:17.874Z,61.50
2019-06-07T09:40:27.118Z,61.90
2019-06-07T09:43:38.650Z,60.00
2019-06-07T09:45:19.526Z,59.00
2019-06-07T09:47:47.766Z,60.20
2019-06-07T09:50:16.025Z,59.00
2019-06-07T09:52:58.022Z,58.90
2019-06-07T09:55:23.727Z,58.20
2019-06-07T09:57:44.356Z,58.50
2019-06-07T10:00:38.982Z,59.10
2019-06-07T10:02:45.711Z,58.80
2019-06-07T10:05:14.949Z,58.80
2019-06-07T10:08:00.173Z,58.70
2019-06-07T10:12:44.111Z,58.70
2019-06-07T10:15:12.486Z,59.50
2019-06-07T10:17:40.742Z,59.40
2019-06-07T10:20:09.844Z,57.80
2019-06-07T10:22:38.344Z,57.50
2019-06-07T10:25:08.327Z,59.20
2019-06-07T10:27:36.605Z,58.60
2019-06-07T10:30:08.328Z,57.50
2019-06-07T10:32:36.730Z,58.10
2019-06-07T10:35:07.744Z,57.90
2019-06-07T10:37:36.865Z,57.90
2019-06-07T10:40:09.309Z,57.60
2019-06-07T10:42:37.762Z,57.50
2019-06-07T10:45:08.009Z,57.10
2019-06-07T10:47:36.417Z,55.70
2019-06-07T10:50:05.996Z,58.10
2019-06-07T10:52:34.521Z,56.40
2019-06-07T10:55:04.217Z,54.90
2019-06-07T10:57:32.869Z,55.90
2019-06-07T11:00:01.122Z,57.30
2019-06-07T11:02:29.388Z,56.60
2019-06-07T11:04:57.726Z,55.70
2019-06-07T11:07:26.031Z,54.40
2019-06-07T11:10:06.345Z,55.60
2019-06-07T11:12:24.313Z,56.00
2019-06-07T11:14:52.550Z,56.10
2019-06-07T11:17:20.821Z,57.90
2019-06-07T11:19:49.141Z,55.50
2019-06-07T11:22:18.573Z,55.20
2019-06-07T11:24:46.954Z,55.60
2019-06-07T11:27:16.431Z,54.60
2019-06-07T11:29:44.859Z,54.00
2019-06-07T11:32:14.525Z,53.80
2019-06-07T11:34:42.826Z,54.40
2019-06-07T11:37:11.610Z,53.40
2019-06-07T11:39:41.069Z,53.90
2019-06-07T11:42:09.920Z,52.70
2019-06-07T11:44:53.184Z,54.00
2019-06-07T11:47:08.337Z,50.40
2019-06-07T11:49:36.601Z,52.20
2019-06-07T11:52:04.847Z,51.80
2019-06-07T11:54:33.108Z,53.90
2019-06-07T11:57:01.349Z,52.30
2019-06-07T11:59:29.618Z,50.90
2019-06-07T12:01:57.886Z,51.60
2019-06-07T12:04:34.328Z,51.20
2019-06-07T12:06:56.096Z,51.00
2019-06-07T12:09:27.827Z,52.20
2019-06-07T12:11:54.406Z,51.40
2019-06-07T12:14:22.824Z,52.60
2019-06-07T12:16:51.144Z,50.90
2019-06-07T12:19:19.819Z,50.10
2019-06-07T12:21:48.194Z,51.40
2019-06-07T12:24:16.489Z,50.00
2019-06-07T12:26:44.725Z,49.90
2019-06-07T12:29:12.941Z,49.90
2019-06-07T12:31:41.224Z,50.50
2019-06-07T12:34:09.473Z,50.90
2019-06-07T12:36:37.730Z,50.20
2019-06-07T12:39:07.318Z,47.90
2019-06-07T12:41:35.658Z,47.90
2019-06-07T12:44:05.253Z,49.10
2019-06-07T12:46:33.574Z,46.00
2019-06-07T12:49:01.814Z,47.40
2019-06-07T12:51:30.068Z,46.50
2019-06-07T12:53:58.318Z,46.60
2019-06-07T12:56:26.591Z,46.80
2019-06-07T12:58:54.821Z,46.60
2019-06-07T13:01:24.738Z,46.70
2019-06-07T13:03:53.105Z,47.10
2019-06-07T13:06:21.716Z,46.60
2019-06-07T13:08:50.112Z,46.50
2019-06-07T13:11:24.298Z,46.10
2019-06-07T13:13:48.327Z,46.70
2019-06-07T13:16:18.013Z,47.90
2019-06-07T13:18:46.503Z,47.30
2019-06-07T13:21:16.081Z,46.30
2019-06-07T13:23:44.586Z,47.60
2019-06-07T13:26:12.860Z,45.50
2019-06-07T13:28:41.101Z,45.60
2019-06-07T13:31:09.346Z,46.20
2019-06-07T13:33:38.876Z,45.40
2019-06-07T13:36:07.462Z,44.20
2019-06-07T13:38:35.790Z,44.60
2019-06-07T13:41:04.012Z,45.70
2019-06-07T13:43:32.290Z,44.70
2019-06-07T13:46:00.532Z,46.50
2019-06-07T13:48:28.802Z,45.50
2019-06-07T13:50:57.960Z,44.30
2019-06-07T13:53:26.228Z,45.10
2019-06-07T13:55:54.495Z,45.20
2019-06-07T13:58:24.135Z,44.30
2019-06-07T14:00:52.543Z,43.70
2019-06-07T14:03:26.327Z,44.80
2019-06-07T14:05:50.784Z,43.10
2019-06-07T14:08:19.113Z,42.30
2019-06-07T14:10:47.388Z,43.10
2019-06-07T14:13:15.703Z,42.70
2019-06-07T14:15:43.961Z,41.80
2019-06-07T14:18:12.226Z,42.70
2019-06-07T14:20:40.483Z,42.10
2019-06-07T14:23:09.067Z,41.00
2019-06-07T14:25:37.321Z,41.30
2019-06-07T14:28:10.907Z,40.50
2019-06-07T14:30:35.562Z,41.20
2019-06-07T14:33:03.797Z,41.50
2019-06-07T14:35:33.686Z,41.10
2019-06-07T14:38:02.105Z,41.20
2019-06-07T14:40:31.864Z,40.10
2019-06-07T14:43:00.280Z,40.70
2019-06-07T14:45:29.695Z,40.50
2019-06-07T14:47:58.149Z,40.10
2019-06-07T14:50:26.430Z,40.20
2019-06-07T14:52:54.663Z,41.00
2019-06-07T14:55:22.918Z,41.10
2019-06-07T14:57:51.159Z,41.30
2019-06-07T15:00:19.617Z,40.30
2019-06-07T15:02:47.922Z,38.30
2019-06-07T15:05:16.189Z,38.00
2019-06-07T15:07:44.439Z,38.70
2019-06-07T15:10:12.870Z,38.90
2019-06-07T15:12:41.131Z,38.50
2019-06-07T15:15:09.757Z,38.10
2019-06-07T15:17:39.248Z,38.10
2019-06-07T15:20:08.655Z,38.00
2019-06-07T15:22:38.425Z,37.60
2019-06-07T15:25:08.654Z,38.10
2019-06-07T15:27:37.633Z,36.90
2019-06-07T15:30:10.795Z,35.70
2019-06-07T15:32:39.838Z,36.40
2019-06-07T15:35:08.464Z,36.80
2019-06-07T15:37:36.775Z,38.00
2019-06-07T15:40:05.498Z,36.90
2019-06-07T15:42:49.095Z,35.90
2019-06-07T15:45:07.768Z,37.30
2019-06-07T15:47:36.031Z,35.50
2019-06-07T15:50:07.532Z,35.90
2019-06-07T15:52:35.948Z,36.30
2019-06-07T15:55:06.627Z,35.50
2019-06-07T15:57:35.194Z,35.60
2019-06-07T16:00:09.286Z,37.20
2019-06-07T16:02:37.596Z,36.50
2019-06-07T16:05:05.990Z,36.60
2019-06-07T16:07:34.252Z,37.10
2019-06-07T16:10:02.571Z,38.60
2019-06-07T16:12:30.823Z,36.10
2019-06-07T16:14:59.062Z,35.70
2019-06-07T16:17:27.329Z,36.50
2019-06-07T16:19:55.552Z,37.10
2019-06-07T16:22:23.810Z,37.60
2019-06-07T16:24:52.052Z,38.20
2019-06-07T16:27:20.316Z,35.60
2019-06-07T16:29:48.567Z,36.20
2019-06-07T16:32:16.887Z,35.90
2019-06-07T16:34:46.030Z,34.90
2019-06-07T16:37:14.459Z,35.20
2019-06-07T16:39:42.741Z,34.50
2019-06-07T16:42:10.977Z,37.60
2019-06-07T16:44:40.520Z,37.20
2019-06-07T16:47:08.974Z,36.40
2019-06-07T16:49:38.625Z,36.10
2019-06-07T16:52:07.079Z,37.00
2019-06-07T16:54:35.726Z,36.10
2019-06-07T16:57:04.200Z,35.40
2019-06-07T16:59:32.460Z,39.30
2019-06-07T17:02:00.689Z,42.90
2019-06-07T17:04:28.959Z,44.00
2019-06-07T17:06:57.220Z,46.30
2019-06-07T17:09:25.483Z,47.50
2019-06-07T17:11:53.807Z,48.60
2019-06-07T17:14:22.057Z,51.30
2019-06-07T17:16:50.406Z,51.00
2019-06-07T17:19:18.753Z,55.80
2019-06-07T17:21:47.565Z,59.80
2019-06-07T17:24:15.940Z,66.50
2019-06-07T17:26:45.432Z,69.90
2019-06-07T17:29:13.817Z,73.40
2019-06-07T17:31:42.059Z,72.30
2019-06-07T17:34:10.333Z,72.00
2019-06-07T17:36:38.577Z,71.40
2019-06-07T17:39:08.186Z,74.20
2019-06-07T17:41:50.524Z,67.70
2019-06-07T17:44:06.723Z,69.70
2019-06-07T17:46:35.047Z,71.60
2019-06-07T17:49:03.278Z,70.90
2019-06-07T17:51:31.565Z,70.40
2019-06-07T17:53:59.814Z,71.70
2019-06-07T17:56:28.086Z,74.20
2019-06-07T17:58:56.339Z,73.40
2019-06-07T18:01:24.603Z,75.20
2019-06-07T18:03:53.217Z,75.70
2019-06-07T18:06:21.653Z,77.60
2019-06-07T18:08:49.895Z,76.80
2019-06-07T18:11:18.178Z,73.40
2019-06-07T18:13:46.412Z,74.60
2019-06-07T18:16:14.680Z,74.20
2019-06-07T18:18:42.904Z,73.50
2019-06-07T18:21:11.148Z,75.10
2019-06-07T18:23:39.402Z,74.90
2019-06-07T18:26:07.648Z,73.40
2019-06-07T18:28:35.878Z,73.60
2019-06-07T18:31:04.405Z,73.70
2019-06-07T18:33:32.650Z,72.70
2019-06-07T18:36:00.938Z,71.10
2019-06-07T18:38:29.166Z,70.70
2019-06-07T18:40:57.423Z,70.20
2019-06-07T18:43:25.656Z,72.40
2019-06-07T18:45:53.900Z,70.70
2019-06-07T18:48:22.170Z,70.80
2019-06-07T18:50:50.887Z,69.40
2019-06-07T18:53:19.144Z,68.50
2019-06-07T18:55:47.825Z,65.90
2019-06-07T18:58:16.202Z,66.00
2019-06-07T19:00:44.448Z,65.20
2019-06-07T19:03:12.738Z,64.20
2019-06-07T19:05:40.989Z,63.40
2019-06-07T19:08:09.278Z,63.60
2019-06-07T19:10:37.578Z,63.40
2019-06-07T19:13:05.846Z,61.70
2019-06-07T19:15:34.088Z,63.00
2019-06-07T19:18:02.353Z,62.80
2019-06-07T19:20:30.585Z,62.70
2019-06-07T19:22:58.859Z,63.80
2019-06-07T19:25:27.118Z,61.70
2019-06-07T19:27:56.897Z,62.70
2019-06-07T19:30:25.416Z,63.60
2019-06-07T19:32:54.973Z,61.90
2019-06-07T19:35:23.409Z,62.50
2019-06-07T19:37:51.887Z,61.80
2019-06-07T19:40:20.286Z,61.60
2019-06-07T19:42:48.524Z,61.40
2019-06-07T19:45:29.555Z,61.50
2019-06-07T19:47:46.891Z,61.80
2019-06-07T19:50:15.162Z,61.80
2019-06-07T19:52:43.436Z,62.00
2019-06-07T19:55:11.721Z,61.30
2019-06-07T19:57:39.984Z,61.60
2019-06-07T20:00:13.857Z,60.80
2019-06-07T20:02:38.609Z,60.70
2019-06-07T20:05:10.137Z,61.40
2019-06-07T20:07:38.383Z,60.00
2019-06-07T20:10:06.639Z,60.60
2019-06-07T20:12:34.882Z,61.30
2019-06-07T20:15:25.273Z,61.00
2019-06-07T20:17:34.185Z,61.20
2019-06-07T20:20:02.853Z,60.10
2019-06-07T20:22:31.175Z,60.50
2019-06-07T20:25:00.521Z,60.90
2019-06-07T20:27:29.111Z,60.60
2019-06-07T20:29:58.180Z,60.40
2019-06-07T20:32:26.471Z,61.00
2019-06-07T20:34:54.818Z,61.50
2019-06-07T20:37:23.047Z,60.50
2019-06-07T20:39:51.380Z,62.00
2019-06-07T20:42:19.629Z,61.90
2019-06-07T20:44:48.041Z,61.70
2019-06-07T20:47:16.323Z,62.00
2019-06-07T20:49:44.625Z,62.20
2019-06-07T20:52:12.912Z,62.40
2019-06-07T20:54:41.141Z,62.60
2019-06-07T20:57:09.422Z,62.00
2019-06-07T20:59:37.814Z,61.50
2019-06-07T21:02:07.204Z,63.20
2019-06-07T21:04:35.596Z,65.30
2019-06-07T21:07:03.848Z,68.80
2019-06-07T21:09:32.086Z,69.50
2019-06-07T21:12:01.568Z,69.50
2019-06-07T21:14:30.033Z,67.10
2019-06-07T21:16:58.289Z,68.90
2019-06-07T21:19:26.553Z,68.90
2019-06-07T21:21:54.822Z,70.30
2019-06-07T21:24:23.072Z,70.50
2019-06-07T21:26:53.388Z,71.60
2019-06-07T21:29:21.309Z,71.20
2019-06-07T21:31:49.626Z,72.40
2019-06-07T21:34:17.869Z,72.00
2019-06-07T21:36:46.133Z,73.20
2019-06-07T21:39:14.397Z,73.40
2019-06-07T21:41:42.652Z,73.20
2019-06-07T21:44:12.283Z,72.80
2019-06-07T21:46:40.663Z,72.80
2019-06-07T21:49:08.906Z,72.80
2019-06-07T21:51:37.142Z,75.60
2019-06-07T21:54:08.119Z,75.00
2019-06-07T21:56:35.374Z,74.70
2019-06-07T21:59:04.985Z,75.40
2019-06-07T22:01:34.381Z,74.60
2019-06-07T22:04:03.493Z,74.90
2019-06-07T22:06:31.972Z,75.70
2019-06-07T22:09:00.287Z,75.90
2019-06-07T22:11:28.602Z,75.20
2019-06-07T22:13:56.859Z,77.90
2019-06-07T22:16:29.231Z,77.30
2019-06-07T22:18:55.096Z,79.40
2019-06-07T22:21:23.336Z,79.20
2019-06-07T22:23:51.603Z,78.80
2019-06-07T22:26:19.843Z,79.50
2019-06-07T22:28:48.182Z,79.30
2019-06-07T22:31:16.441Z,80.10
2019-06-07T22:33:44.705Z,80.30
2019-06-07T22:36:13.269Z,79.00
2019-06-07T22:38:41.669Z,79.40
2019-06-07T22:41:09.907Z,80.70
2019-06-07T22:43:38.177Z,79.90
2019-06-07T22:46:06.757Z,80.00
2019-06-07T22:48:35.194Z,79.10
2019-06-07T22:51:07.314Z,80.20
2019-06-07T22:53:36.767Z,75.20
2019-06-07T22:56:07.741Z,73.20
2019-06-07T22:58:36.106Z,72.10
2019-06-07T23:01:04.365Z,73.00
2019-06-07T23:03:32.581Z,73.60
2019-06-07T23:06:00.924Z,74.20
2019-06-07T23:08:29.164Z,73.80
2019-06-07T23:10:57.551Z,76.50
2019-06-07T23:13:25.783Z,74.70
2019-06-07T23:15:54.046Z,75.20
2019-06-07T23:18:22.272Z,75.70
2019-06-07T23:20:50.691Z,74.30
2019-06-07T23:23:19.966Z,74.10
2019-06-07T23:25:48.461Z,74.40
2019-06-07T23:28:16.708Z,76.30
2019-06-07T23:30:44.990Z,75.00
2019-06-07T23:33:13.303Z,76.10
2019-06-07T23:35:41.555Z,78.40
2019-06-07T23:38:10.840Z,80.10
2019-06-07T23:40:39.135Z,79.40
2019-06-07T23:43:07.373Z,80.90
2019-06-07T23:45:35.623Z,80.10
2019-06-07T23:48:03.876Z,79.20
2019-06-07T23:50:32.137Z,79.20
2019-06-07T23:53:00.370Z,80.10
2019-06-07T23:55:28.625Z,80.90
2019-06-07T23:57:56.932Z,80.60
